Annapolis, Illinois
Current Conditions -  °F | °C
As of 11:35 AM on Saturday 25 Oct 2014 (Local Time) from KRSV Reporting Station
Clear Clear  
Wind Chill: 72°   Ceiling: Unl
Heat Index: 72°   Visibility: 10mi
Dew Point: 58°   Wind: 6mph
Humidity: 62%   Direction: 300°WNW
Pressure: 30.02"   Gusts: NA
Location:  39.14°N, 87.82°W
Report Text: KRSV 251635Z AUTO 30005KT 10SM CLR 22/15 A3002 RMK AO2 T02240147
Loading
Personal Weather Stations






























Interactive Weather Map
Tropical Storm Tracking
New forecast layout! Learn more

10-Day Weather Forecast

Advertisements
Track Severe Weather on mobile